Wetterdaten: aktuell Dienstag, 28.01.2020 14:30
Datum Zeit Temp. A. Feuchte A. Luftdruck Regen Wind Richtung Richtung Taupunkt Windchill Windben
28.01.2020 14:30 0,7 C 90 % 995,3 hPa 0,0 l/m 12,9 km/h (3 Bft) SW 225 -0,7 C -4,8 C 30,6 km/h (5 Bft)
28.01.2020 14:00 1,0 C 89 % 995,4 hPa 0,8 l/m 16,1 km/h (3 Bft) SW 225 -0,6 C -6,4 C 35,4 km/h (5 Bft)
28.01.2020 13:30 0,8 C 93 % 995,2 hPa 1,4 l/m 12,9 km/h (3 Bft) SW 225 -0,2 C -4,7 C 40,2 km/h (6 Bft)
28.01.2020 13:00 2,1 C 92 % 994,8 hPa 0,8 l/m 14,5 km/h (3 Bft) S-SW 202 0,9 C -4,2 C 30,6 km/h (5 Bft)
28.01.2020 12:30 2,3 C 93 % 994,7 hPa 0,2 l/m 14,5 km/h (3 Bft) S-SW 202 1,3 C -3,9 C 43,5 km/h (6 Bft)
28.01.2020 12:00 1,7 C 94 % 995,0 hPa 0,6 l/m 11,3 km/h (2 Bft) S-SW 202 0,8 C -2,6 C 29,0 km/h (5 Bft)
28.01.2020 11:30 1,4 C 93 % 995,9 hPa 1,8 l/m 11,3 km/h (2 Bft) S-SW 202 0,4 C -2,9 C 25,7 km/h (4 Bft)
28.01.2020 11:00 2,4 C 91 % 996,6 hPa 0,2 l/m 14,5 km/h (3 Bft) S-SW 202 1,1 C -3,8 C 45,1 km/h (6 Bft)
28.01.2020 10:30 2,4 C 91 % 997,0 hPa 0,0 l/m 12,9 km/h (3 Bft) S-SW 202 1,1 C -2,8 C 35,4 km/h (5 Bft)
28.01.2020 10:00 2,3 C 91 % 997,2 hPa 0,0 l/m 12,9 km/h (3 Bft) S-SW 202 1,0 C -2,9 C 33,8 km/h (5 Bft)
28.01.2020 09:30 2,3 C 90 % 997,8 hPa 0,0 l/m 14,5 km/h (3 Bft) S-SW 202 0,8 C -3,9 C 35,4 km/h (5 Bft)
28.01.2020 09:00 2,1 C 91 % 998,0 hPa 0,0 l/m 11,3 km/h (2 Bft) S-SW 202 0,8 C -2,1 C 35,4 km/h (5 Bft)
28.01.2020 08:30 2,1 C 90 % 998,5 hPa 0,0 l/m 14,5 km/h (3 Bft) SW 225 0,6 C -4,2 C 33,8 km/h (5 Bft)
28.01.2020 08:00 2,0 C 92 % 998,8 hPa 0,0 l/m 16,1 km/h (3 Bft) S-SW 202 0,8 C -5,2 C 38,6 km/h (5 Bft)
28.01.2020 07:30 1,7 C 94 % 998,9 hPa 0,2 l/m 9,7 km/h (2 Bft) S-SW 202 0,8 C -1,3 C 29,0 km/h (5 Bft)
28.01.2020 07:00 1,5 C 94 % 999,1 hPa 0,2 l/m 9,7 km/h (2 Bft) S-SW 202 0,6 C -1,6 C 22,5 km/h (4 Bft)
28.01.2020 06:30 1,4 C 94 % 999,4 hPa 0,2 l/m 6,4 km/h (2 Bft) S-SW 202 0,5 C 1,4 C 17,7 km/h (3 Bft)
28.01.2020 06:00 1,4 C 93 % 999,6 hPa 0,6 l/m 6,4 km/h (2 Bft) S-SW 202 0,4 C 1,4 C 24,1 km/h (4 Bft)
28.01.2020 05:30 1,6 C 94 % 999,7 hPa 0,2 l/m 9,7 km/h (2 Bft) S-SW 202 0,7 C -1,4 C 25,7 km/h (4 Bft)
28.01.2020 05:00 1,7 C 94 % 999,8 hPa 0,2 l/m 9,7 km/h (2 Bft) S-SW 202 0,8 C -1,3 C 27,4 km/h (4 Bft)
28.01.2020 04:30 1,8 C 94 % 999,9 hPa 0,2 l/m 14,5 km/h (3 Bft) S-SW 202 0,9 C -4,5 C 27,4 km/h (4 Bft)
28.01.2020 04:00 1,8 C 94 % 1000,0 hPa 0,0 l/m 16,1 km/h (3 Bft) S-SW 202 0,9 C -5,4 C 45,1 km/h (6 Bft)
28.01.2020 03:30 1,8 C 95 % 1000,5 hPa 0,0 l/m 11,3 km/h (2 Bft) S-SW 202 1,1 C -2,4 C 32,2 km/h (5 Bft)
28.01.2020 03:00 1,7 C 95 % 1001,5 hPa 0,0 l/m 16,1 km/h (3 Bft) S-SW 202 1,0 C -5,5 C 43,5 km/h (6 Bft)
28.01.2020 02:30 1,8 C 94 % 1001,8 hPa 0,0 l/m 16,1 km/h (3 Bft) S-SW 202 0,9 C -5,4 C 33,8 km/h (5 Bft)
28.01.2020 02:00 1,8 C 93 % 1002,1 hPa 0,2 l/m 14,5 km/h (3 Bft) S-SW 202 0,8 C -4,5 C 40,2 km/h (6 Bft)
28.01.2020 01:30 2,1 C 94 % 1002,9 hPa 0,0 l/m 14,5 km/h (3 Bft) S-SW 202 1,2 C -4,2 C 30,6 km/h (5 Bft)
28.01.2020 01:00 2,2 C 93 % 1003,6 hPa 0,2 l/m 14,5 km/h (3 Bft) S-SW 202 1,2 C -4,0 C 41,8 km/h (6 Bft)
28.01.2020 00:30 2,2 C 94 % 1004,1 hPa 0,0 l/m 12,9 km/h (3 Bft) S 180 1,3 C -3,1 C 40,2 km/h (6 Bft)
28.01.2020 00:00 2,0 C 94 % 1004,5 hPa 0,0 l/m 12,9 km/h (3 Bft) S-SW 202 1,1 C -3,3 C 32,2 km/h (5 Bft)
27.01.2020 23:30 2,1 C 93 % 1004,9 hPa 0,0 l/m 14,5 km/h (3 Bft) S-SW 202 1,1 C -4,2 C 35,4 km/h (5 Bft)
27.01.2020 23:00 2,3 C 93 % 1005,4 hPa 0,0 l/m 16,1 km/h (3 Bft) S-SW 202 1,3 C -4,8 C 41,8 km/h (6 Bft)
27.01.2020 22:30 2,1 C 94 % 1005,8 hPa 0,0 l/m 12,9 km/h (3 Bft) S 180 1,2 C -3,2 C 41,8 km/h (6 Bft)
27.01.2020 22:00 1,8 C 95 % 1006,4 hPa 0,0 l/m 6,4 km/h (2 Bft) S-SW 202 1,1 C 1,8 C 25,7 km/h (4 Bft)
27.01.2020 21:30 1,5 C 95 % 1007,2 hPa 0,0 l/m 4,8 km/h (1 Bft) S-SW 202 0,8 C 1,5 C 17,7 km/h (3 Bft)
27.01.2020 21:00 1,2 C 95 % 1007,8 hPa 0,0 l/m 3,2 km/h (1 Bft) S 180 0,5 C 1,2 C 11,3 km/h (2 Bft)
27.01.2020 20:30 1,2 C 95 % 1008,2 hPa 0,0 l/m 1,6 km/h (1 Bft) O-SO 112 0,5 C 1,2 C 11,3 km/h (2 Bft)
27.01.2020 20:00 1,0 C 95 % 1009,1 hPa 0,0 l/m 3,2 km/h (1 Bft) S 180 0,3 C 1,0 C 14,5 km/h (3 Bft)
27.01.2020 19:30 0,8 C 95 % 1009,3 hPa 0,0 l/m 1,6 km/h (1 Bft) S 180 0,1 C 0,8 C 6,4 km/h (2 Bft)
27.01.2020 19:00 0,5 C 94 % 1009,7 hPa 0,0 l/m 1,6 km/h (1 Bft) S-SO 157 -0,4 C 0,5 C 8,0 km/h (2 Bft)
27.01.2020 18:30 0,8 C 94 % 1010,0 hPa 0,0 l/m 3,2 km/h (1 Bft) S-SO 157 -0,1 C 0,8 C 14,5 km/h (3 Bft)
27.01.2020 18:00 1,0 C 94 % 1010,6 hPa 0,0 l/m 3,2 km/h (1 Bft) SO 135 0,1 C 1,0 C 14,5 km/h (3 Bft)
27.01.2020 17:30 1,3 C 94 % 1010,9 hPa 0,0 l/m 1,6 km/h (1 Bft) S-SO 157 0,4 C 1,3 C 9,7 km/h (2 Bft)
27.01.2020 17:00 1,6 C 93 % 1011,2 hPa 0,0 l/m 1,6 km/h (1 Bft) O 90 0,6 C 1,6 C 8,0 km/h (2 Bft)
27.01.2020 16:30 2,1 C 94 % 1011,6 hPa 0,0 l/m 4,8 km/h (1 Bft) S 180 1,2 C 2,1 C 20,9 km/h (4 Bft)
27.01.2020 16:00 1,8 C 95 % 1012,1 hPa 0,0 l/m 6,4 km/h (2 Bft) S 180 1,1 C 1,8 C 19,3 km/h (3 Bft)
27.01.2020 15:30 1,3 C 95 % 1012,3 hPa 0,0 l/m 1,6 km/h (1 Bft) SO 135 0,6 C 1,3 C 11,3 km/h (2 Bft)
27.01.2020 15:00 0,8 C 94 % 1012,5 hPa 0,0 l/m 1,6 km/h (1 Bft) SW 225 -0,1 C 0,8 C 8,0 km/h (2 Bft)
_ Min-Zeit 15:30 14:00 12:30 - 15:00 - - 14:30 14:00 19:30
Minimum _ 0,5 C 89 % 994,7 hPa - 1,6 km/h (1 Bft) - - -0,7 C -6,4 C 6,4 km/h (2 Bft)
_ Max-Zeit 11:00 15:30 15:00 11:30 23:00 - - 00:30 16:30 04:00
Maximum _ 2,6 C 95 % 1012,5 hPa 1,8 l/m 16,1 km/h
S-SW (3 Bft)
- - 1,3 C 2,1 C 45,1 km/h
W (6 Bft)
Durchschnitt _ 1,6 C 93 % 1003,3 hPa #8,0 l/m 9,4 km/h (2 Bft) S-SW - 0,6 C -1,8 C 26,5 km/h (4 Bft)